Flugplatz Mühldorf (EDMY)

Hier findest Du alle Informationen zum Flugplatz Mühldorf (EDMY).

Informationen für Piloten zum Flugplatz Mühldorf

Hier findest Du alle relevanten Informationen, die Du als Pilot benötigst, um Mühldorf anzufliegen.

Flugplatz: Mühldorf ICAO-Code: EDMY
Frequenz Turm: 119,775 Mhz GAFOR Gebiet: 74
Frequenz Ground: 119,775 Mhz Mogas: ja
Platzrunde: N 2500 ft Landegebühr: -
Platzhöhe: - Sunrise: 03:22 Uhr UTC
Pisten: 08/26 - 773 m x 20 m, ASPH Sunset: 18:50 Uhr UTC

Flugwetter am Flugplatz Mühldorf

Die METAR Information stammen aus EDDM (53.71 km entfernt).

METAR Code:
2022/05/16 14:50
EDDM 161450Z 29005KT 9999 VCSH FEW035CB SCT042 23/14 Q1019 TEMPO 25025G40KT 3000 TSGRRA BKN030CB

Temperatur: 15,6 °C Niederschlag: - Wind: 2,2 kt (max.: 3,5 kt in Böen)
Temperatur (min.): 14,6 °C Luftdruck: 1020 hPa Windrichtung: 197 °
Temperatur (max.): 19,3 °C Luftfeuchtigkeit: 98 % Bewölkung: 8/8

Flugschulen am Flugplatz Mühldorf

Am Flugplatz Mühldorf gibt es 3 Flugschulen.

Benachbarte Flugplätze und Flugschulen

Es gibt 15 weitere Flugplätze in einem Umkreis von 50 km um den Flugplatz Mühldorf.

Jetzt anmelden

Passwort vergessen

Umfrage Archiv

Sendet Ihr ADS-B und/oder FLARM?

Ja
81.6 %
Nein
18.4 %
Stimmen: 147 | Diskussion
Anzeige: Roland Aircraft
Statistik Alle Mitglieder

Aktuell sind 64 Besucher online, davon 1 Mitglied und 63 Gäste.


Mitglieder online:
Günter N 

Anzeige: ULPower Aero Engines Anzeige: Pocket FMS